CYWJCYRA

Guest
Details From CYWJ - Deline
To CYRA - Rae Lakes
Flight Number -
Tags generated
Created
Modified
Stats Distance 175 nm / 324 km
Max Altitude 17,700 ft / 5,395 m
Waypoints 3
Social Downloads 0
Likes 0
Share VATSIM

Download

Looking for another format? Having issues loading an existing format? Contact us
Advertisement - Login to hide

Notes

Basic altitude profile: - Ascent Rate: 2500ft/min - Ascent Speed: 250kts - Cruise Altitude: 35000ft - Cruise Speed: 420kts - Descent Rate: 1500ft/min - Descent Speed: 250kts Options: - Use NATs: yes - Use PACOTS: yes - Use low airways: yes - Use high airways: yes

Route

CYWJ 6500N12000W CYRA

ID Type Via Altitude Latitude Longitude Leg Dist Tot Dist Heading (true) Name
O CYWJ APT - 0 ft / 0 m 65.21110˚ -123.43684˚ - 0 nm - Deline
6500N12000W LATLON - 17,700 ft / 5,395 m 65.00000˚ -120.00000˚ 87 nm 87 nm 97° / 100° -
O CYRA APT - 0 ft / 0 m 64.11601˚ -117.30983˚ 87 nm 175 nm 126° / 129° Rae Lakes

Altitude Profile

Advertisement - Login to hide

Weather


0- 5 10 15 20 25 30 35+ Temperature / ° C

Clouds and Precipitation
Forecast for 2018-05-25 00:00 UTC. Updated an hour ago

Ground ~20,000 ft ~40,000 ft Winds

CYWJ

Details ICAO CYWJ (YWJ)
Name Deline
Region Canada
Timezone America/Yellowknife (UTC-6.0)
Stats Elevation 695 ft / 212 m (AMSL)
Location 65.211101° -123.436843°
Runways 1
Magnetic Variation 20.337° E

METAR

CYWJ 242300Z 09013G23KT 60SM BKN068 12/05 A2967 RMK AS7 CIG RAG 12.4/3.5/1.0 LAST STFD OBS/NXT 251300 UTC SLP060 DENSITY ALT 900FT

Decode

TAF

TAF CYWJ 241738Z 2418/2423 10012KT P6SM SCT020 BKN090 TEMPO 2418/2420 P6SM -SHRA BKN020 OVC080 FM242000 10012KT P6SM SCT015 OVC060 TEMPO 2420/2423 5SM -SHRA BR SCT008 OVC015 RMK NXT FCST WILL BE ISSUED AT 251415Z

Decode

Departure Runways

ID Width Length Bearing (true) Bearing (mag) Surface Threshold Offset Overrun Length
10 164 ft / 50 m 4,375 ft / 1,333 m 100.16° 79.82° Dirt 0 ft / 0 m 0 ft / 0 m
28 164 ft / 50 m 4,375 ft / 1,333 m 280.18° 259.84° Dirt 0 ft / 0 m 0 ft / 0 m

CYRA

Details ICAO CYRA (YRA)
Name Rae Lakes
Region Canada
Timezone America/Yellowknife (UTC-6.0)
Stats Elevation 757 ft / 231 m (AMSL)
Location 64.116013° -117.309831°
Runways 1
Magnetic Variation 18.154° E

METAR

CYRA 250000Z 09010G15KT 15SM SCT140 BKN160 OVC220 15/03 A2980 RMK AC4AC1CC3 17.0/ 7.7/ 0.0/ LAST STFD OBS/ NXT 251400Z SLP103 DENSITY ALT 1000FT

Decode

TAF

TAF CYRA 241838Z 2419/2424 11008KT P6SM FEW120 SCT200 FM242100 12008KT P6SM SCT070 OVC120 TEMPO 2422/2424 P6SM -SHRA BKN070 OVC100 RMK NXT FCST WILL BE ISSUED AT 251545Z

Decode

Destination Runways

ID Width Length Bearing (true) Bearing (mag) Surface Threshold Offset Overrun Length
14 98 ft / 30 m 3,226 ft / 983 m 136.53° 118.38° Dirt 0 ft / 0 m 0 ft / 0 m
32 98 ft / 30 m 3,226 ft / 983 m 316.54° 298.39° Dirt 0 ft / 0 m 0 ft / 0 m